Washington, District of Columbia
Traffic Map
Current Weather Conditions
Washington, District of Columbia
Broken Clouds
Broken Clouds
26°
Feels Like: 28°
Wind Chill: 26° Ceiling: 9000
Heat Index: 28° Visibility: 10mi
Dew Point: 25° Wind: 6mph
Humidity: 94% Direction: 150° (SSE)
Pressure: 29.87in Gusts: 0mph
Raw Report DataKDCA 190152Z 15005KT 10SM FEW020 BKN090 BKN240 26/25 A2987 RMK AO2 LTG DSNT SE AND S TSE00B09E24 SLP113 T02610250
Traffic Incident Summary
Active as of:
Severity:
Category:
InformationThere was an issue retrieving the traffic information for this location. Please try a different location or try again shortly.
Advertisements